createdAt,value
2022-11-15T00:01:20.468Z,0.95
2022-11-15T00:03:52.696Z,1.00
2022-11-15T00:06:20.804Z,1.00
2022-11-15T00:08:48.787Z,1.00
2022-11-15T00:11:16.819Z,0.80
2022-11-15T00:13:44.753Z,0.77
2022-11-15T00:16:14.069Z,1.00
2022-11-15T00:18:46.358Z,0.80
2022-11-15T00:21:18.407Z,0.80
2022-11-15T00:23:46.362Z,1.13
2022-11-15T00:26:17.354Z,0.95
2022-11-15T00:28:45.301Z,0.90
2022-11-15T00:31:16.405Z,1.13
2022-11-15T00:33:46.424Z,1.08
2022-11-15T00:36:14.660Z,1.00
2022-11-15T00:38:43.411Z,1.10
2022-11-15T00:41:11.463Z,0.90
2022-11-15T00:43:40.841Z,0.95
2022-11-15T00:48:39.574Z,0.90
2022-11-15T00:51:07.720Z,0.80
2022-11-15T00:53:36.105Z,0.90
2022-11-15T00:56:04.082Z,0.90
2022-11-15T00:58:33.037Z,0.90
2022-11-15T01:01:09.499Z,1.10
2022-11-15T01:03:40.133Z,0.98
2022-11-15T01:06:09.273Z,0.98
2022-11-15T01:08:37.918Z,0.75
2022-11-15T01:11:09.541Z,0.90
2022-11-15T01:13:39.274Z,1.10
2022-11-15T01:18:43.185Z,0.82
2022-11-15T01:21:14.455Z,0.85
2022-11-15T01:23:42.463Z,0.95
2022-11-15T01:26:14.600Z,0.80
2022-11-15T01:28:44.396Z,0.80
2022-11-15T01:31:16.946Z,0.88
2022-11-15T01:33:47.256Z,0.70
2022-11-15T01:36:19.129Z,0.95
2022-11-15T01:38:47.302Z,1.02
2022-11-15T01:41:19.474Z,0.95
2022-11-15T01:43:51.249Z,0.70
2022-11-15T01:46:31.048Z,0.80
2022-11-15T01:49:06.923Z,0.80
2022-11-15T01:51:36.016Z,0.90
2022-11-15T01:54:10.665Z,0.95
2022-11-15T01:56:47.723Z,1.00
2022-11-15T01:59:16.806Z,0.98
2022-11-15T02:01:45.592Z,1.15
2022-11-15T02:04:21.268Z,1.10
2022-11-15T02:06:50.860Z,0.80
2022-11-15T02:11:49.547Z,1.10
2022-11-15T02:14:22.124Z,0.85
2022-11-15T02:17:03.222Z,0.75
2022-11-15T02:20:24.584Z,0.93
2022-11-15T02:23:34.167Z,0.90
2022-11-15T02:26:40.226Z,0.85
2022-11-15T02:29:14.332Z,1.02
2022-11-15T02:31:58.023Z,1.00
2022-11-15T02:34:37.296Z,1.05
2022-11-15T02:37:16.904Z,0.85
2022-11-15T02:39:53.794Z,1.10
2022-11-15T02:42:46.286Z,0.90
2022-11-15T02:45:27.031Z,1.13
2022-11-15T02:48:01.075Z,1.10
2022-11-15T02:50:33.767Z,1.00
2022-11-15T02:53:02.098Z,0.80
2022-11-15T02:55:32.863Z,0.90
2022-11-15T02:58:34.368Z,0.90
2022-11-15T03:01:13.323Z,1.00
2022-11-15T03:04:04.619Z,0.80
2022-11-15T03:06:44.245Z,1.10
2022-11-15T03:12:05.212Z,0.90
2022-11-15T03:14:38.113Z,1.23
2022-11-15T03:17:17.925Z,1.00
2022-11-15T03:19:52.419Z,1.00
2022-11-15T03:22:25.864Z,1.00
2022-11-15T03:24:59.391Z,1.20
2022-11-15T03:27:35.455Z,1.20
2022-11-15T03:30:09.245Z,1.10
2022-11-15T03:32:46.394Z,1.15
2022-11-15T03:35:21.558Z,1.10
2022-11-15T03:37:57.358Z,1.10
2022-11-15T03:40:36.543Z,1.00
2022-11-15T03:43:12.561Z,0.95
2022-11-15T03:45:49.885Z,1.10
2022-11-15T03:48:24.946Z,1.00
2022-11-15T03:50:55.593Z,0.90
2022-11-15T03:53:23.534Z,1.00
2022-11-15T03:55:51.500Z,0.80
2022-11-15T03:58:19.438Z,0.80
2022-11-15T04:00:47.423Z,0.70
2022-11-15T04:03:15.490Z,0.90
2022-11-15T04:05:43.502Z,0.93
2022-11-15T04:08:12.793Z,0.90
2022-11-15T04:10:41.090Z,1.00
2022-11-15T04:13:09.183Z,0.80
2022-11-15T04:15:40.880Z,1.05
2022-11-15T04:18:09.029Z,0.90
2022-11-15T04:21:09.051Z,0.85
2022-11-15T04:24:01.376Z,0.93
2022-11-15T04:26:29.372Z,0.80
2022-11-15T04:29:14.851Z,0.90
2022-11-15T04:31:42.931Z,0.80
2022-11-15T04:34:10.845Z,0.90
2022-11-15T04:36:56.468Z,0.70
2022-11-15T04:39:25.807Z,1.00
2022-11-15T04:41:53.748Z,0.77
2022-11-15T04:44:21.652Z,1.23
2022-11-15T04:46:49.576Z,1.10
2022-11-15T04:49:17.532Z,1.05
2022-11-15T04:51:46.064Z,0.95
2022-11-15T04:54:13.993Z,1.20
2022-11-15T04:56:43.343Z,1.20
2022-11-15T04:59:11.283Z,1.10
2022-11-15T05:01:44.593Z,1.30
2022-11-15T05:04:21.197Z,1.00
2022-11-15T05:06:53.559Z,0.90
2022-11-15T05:09:22.748Z,1.10
2022-11-15T05:11:52.088Z,1.02
2022-11-15T05:14:20.244Z,1.00
2022-11-15T05:16:48.186Z,1.00
2022-11-15T05:19:16.226Z,0.90
2022-11-15T05:21:44.209Z,1.10
2022-11-15T05:24:13.016Z,1.00
2022-11-15T05:26:41.079Z,0.93
2022-11-15T05:29:12.642Z,0.93
2022-11-15T05:31:43.520Z,0.93
2022-11-15T05:34:12.441Z,1.02
2022-11-15T05:36:45.686Z,1.00
2022-11-15T05:39:13.620Z,1.10
2022-11-15T05:41:49.044Z,1.00
2022-11-15T05:44:34.116Z,0.80
2022-11-15T05:47:02.414Z,0.90
2022-11-15T05:49:37.120Z,1.02
2022-11-15T05:52:09.520Z,0.80
2022-11-15T05:54:39.346Z,1.00
2022-11-15T05:57:08.671Z,0.93
2022-11-15T05:59:38.307Z,1.00
2022-11-15T06:02:06.355Z,1.00
2022-11-15T06:04:34.509Z,0.77
2022-11-15T06:07:02.582Z,1.02
2022-11-15T06:09:30.591Z,0.90
2022-11-15T06:11:58.588Z,1.10
2022-11-15T06:14:26.791Z,1.10
2022-11-15T06:16:56.368Z,1.00
2022-11-15T06:19:24.402Z,1.00
2022-11-15T06:21:52.374Z,1.00
2022-11-15T06:24:20.299Z,0.77
2022-11-15T06:26:48.213Z,1.17
2022-11-15T06:29:16.233Z,1.00
2022-11-15T06:31:44.249Z,1.33
2022-11-15T06:34:13.532Z,0.90
2022-11-15T06:36:41.533Z,0.90
2022-11-15T06:39:09.494Z,1.20
2022-11-15T06:41:38.213Z,1.13
2022-11-15T06:44:06.328Z,1.37
2022-11-15T06:46:34.335Z,1.00
2022-11-15T06:49:06.692Z,1.33
2022-11-15T06:51:38.909Z,1.02
2022-11-15T06:54:07.308Z,1.10
2022-11-15T06:56:36.193Z,1.10
2022-11-15T06:59:04.291Z,1.10
2022-11-15T07:01:32.410Z,0.90
2022-11-15T07:04:00.374Z,0.95
2022-11-15T07:06:28.384Z,0.85
2022-11-15T07:08:57.850Z,0.80
2022-11-15T07:11:25.820Z,1.08
2022-11-15T07:13:53.755Z,0.90
2022-11-15T07:16:22.017Z,0.80
2022-11-15T07:18:49.938Z,0.90
2022-11-15T07:21:17.869Z,0.70
2022-11-15T07:23:45.809Z,0.70
2022-11-15T07:26:15.164Z,0.70
2022-11-15T07:28:43.266Z,0.80
2022-11-15T07:31:11.252Z,0.85
2022-11-15T07:33:39.587Z,0.82
2022-11-15T07:36:10.259Z,0.82
2022-11-15T07:38:42.757Z,0.80
2022-11-15T07:41:11.301Z,0.60
2022-11-15T07:43:40.892Z,0.98
2022-11-15T07:46:11.086Z,0.80
2022-11-15T07:48:44.501Z,0.70
2022-11-15T07:51:15.146Z,0.65
2022-11-15T07:53:43.436Z,0.80
2022-11-15T07:56:12.561Z,0.60
2022-11-15T07:58:41.984Z,0.70
2022-11-15T08:01:12.370Z,1.00
2022-11-15T08:03:40.644Z,0.60
2022-11-15T08:06:08.873Z,0.80
2022-11-15T08:08:36.884Z,0.65
2022-11-15T08:11:05.210Z,0.52
2022-11-15T08:13:33.565Z,0.50
2022-11-15T08:16:06.286Z,0.60
2022-11-15T08:18:34.817Z,0.60
2022-11-15T08:21:03.459Z,0.60
2022-11-15T08:23:33.168Z,0.70
2022-11-15T08:26:04.058Z,0.77
2022-11-15T08:28:32.432Z,0.52
2022-11-15T08:31:02.073Z,0.55
2022-11-15T08:33:31.197Z,0.60
2022-11-15T08:36:00.608Z,0.70
2022-11-15T08:38:31.624Z,0.60
2022-11-15T08:41:07.016Z,0.60
2022-11-15T08:43:35.377Z,0.70
2022-11-15T08:46:05.155Z,0.50
2022-11-15T08:48:33.617Z,0.50
2022-11-15T08:51:01.735Z,0.60
2022-11-15T08:53:29.687Z,0.50
2022-11-15T08:55:57.674Z,0.50
2022-11-15T08:58:25.717Z,0.50
2022-11-15T09:00:53.621Z,0.40
2022-11-15T09:03:22.893Z,0.57
2022-11-15T09:05:50.965Z,0.43
2022-11-15T09:08:46.068Z,0.50
2022-11-15T09:11:08.286Z,0.65
2022-11-15T09:13:37.910Z,0.40
2022-11-15T09:16:07.009Z,0.52
2022-11-15T09:18:36.640Z,0.40
2022-11-15T09:21:05.333Z,0.30
2022-11-15T09:23:33.305Z,0.43
2022-11-15T09:26:03.783Z,0.50
2022-11-15T09:28:34.433Z,0.50
2022-11-15T09:31:05.834Z,0.40
2022-11-15T09:33:34.089Z,0.45
2022-11-15T09:36:06.794Z,0.50
2022-11-15T09:38:35.988Z,0.30
2022-11-15T09:41:50.510Z,0.40
2022-11-15T09:44:44.100Z,0.40
2022-11-15T09:47:51.691Z,0.30
2022-11-15T09:50:41.966Z,0.47
2022-11-15T09:53:16.736Z,0.40
2022-11-15T09:55:58.787Z,0.50
2022-11-15T09:58:37.088Z,0.32
2022-11-15T10:01:16.682Z,0.45
2022-11-15T10:03:46.568Z,0.50
2022-11-15T10:09:02.986Z,0.40
2022-11-15T10:11:38.242Z,0.40
2022-11-15T10:14:15.952Z,0.30
2022-11-15T10:17:18.103Z,0.40
2022-11-15T10:20:06.519Z,0.40
2022-11-15T10:22:42.024Z,0.40
2022-11-15T10:25:24.345Z,0.50
2022-11-15T10:28:00.205Z,0.40
2022-11-15T10:30:40.723Z,0.55
2022-11-15T10:33:26.286Z,0.40
2022-11-15T10:36:21.679Z,0.30
2022-11-15T10:39:00.740Z,0.32
2022-11-15T10:41:39.089Z,0.40
2022-11-15T10:44:30.515Z,0.30
2022-11-15T10:47:28.206Z,0.40
2022-11-15T10:50:04.151Z,0.40
2022-11-15T10:52:35.090Z,0.40
2022-11-15T10:55:26.209Z,0.30
2022-11-15T10:58:03.440Z,0.30
2022-11-15T11:00:36.746Z,0.30
2022-11-15T11:03:08.094Z,0.40
2022-11-15T11:05:42.180Z,0.40
2022-11-15T11:08:25.734Z,0.35
2022-11-15T11:11:02.698Z,0.30
2022-11-15T11:13:35.837Z,0.30
2022-11-15T11:16:28.523Z,0.30
2022-11-15T11:19:10.188Z,0.30
2022-11-15T11:21:51.656Z,0.30
2022-11-15T11:24:32.187Z,0.40
2022-11-15T11:27:19.992Z,0.30
2022-11-15T11:30:09.047Z,0.40
2022-11-15T11:32:56.748Z,0.30
2022-11-15T11:35:32.696Z,0.40
2022-11-15T11:38:26.828Z,0.30
2022-11-15T11:41:17.135Z,0.30
2022-11-15T11:44:01.788Z,0.30
2022-11-15T11:46:49.929Z,0.40
2022-11-15T11:49:25.456Z,0.30
2022-11-15T11:52:01.680Z,0.30
2022-11-15T11:54:41.673Z,0.40
2022-11-15T11:57:35.143Z,0.20
2022-11-15T12:00:17.955Z,0.40
2022-11-15T12:02:58.206Z,0.35
2022-11-15T12:05:37.833Z,0.25
2022-11-15T12:08:26.171Z,0.30
2022-11-15T12:11:07.526Z,0.30
2022-11-15T12:13:38.827Z,0.50
2022-11-15T12:16:16.417Z,0.30
2022-11-15T12:18:51.081Z,0.25
2022-11-15T12:21:29.709Z,0.30
2022-11-15T12:24:05.281Z,0.38
2022-11-15T12:26:42.929Z,0.30
2022-11-15T12:29:21.277Z,0.30
2022-11-15T12:31:56.601Z,0.25
2022-11-15T12:34:47.318Z,0.20
2022-11-15T12:37:50.738Z,0.30
2022-11-15T12:40:41.192Z,0.30
2022-11-15T12:43:41.072Z,0.30
2022-11-15T12:46:21.692Z,0.30
2022-11-15T12:48:59.713Z,0.30
2022-11-15T12:52:08.528Z,0.30
2022-11-15T12:55:02.876Z,0.40
2022-11-15T12:57:40.908Z,0.20
2022-11-15T13:00:48.266Z,0.40
2022-11-15T13:03:34.659Z,0.30
2022-11-15T13:06:43.276Z,0.40
2022-11-15T13:09:55.550Z,0.30
2022-11-15T13:12:57.463Z,0.40
2022-11-15T13:15:57.664Z,0.30
2022-11-15T13:18:41.675Z,0.30
2022-11-15T13:21:43.121Z,0.40
2022-11-15T13:24:18.624Z,0.20
2022-11-15T13:26:48.000Z,0.20
2022-11-15T13:29:22.030Z,0.30
2022-11-15T13:31:50.723Z,0.35
2022-11-15T13:34:50.415Z,0.40
2022-11-15T13:37:33.501Z,0.40
2022-11-15T13:40:23.637Z,0.22
2022-11-15T13:43:02.317Z,0.22
2022-11-15T13:45:35.536Z,0.22
2022-11-15T13:48:12.558Z,0.30
2022-11-15T13:50:50.503Z,0.40
2022-11-15T13:53:21.344Z,0.30
2022-11-15T13:55:53.866Z,0.50
2022-11-15T13:58:28.840Z,0.40
2022-11-15T14:01:07.933Z,0.30
2022-11-15T14:03:56.911Z,0.50
2022-11-15T14:06:36.380Z,0.40
2022-11-15T14:09:47.110Z,0.30
2022-11-15T14:12:34.957Z,0.50
2022-11-15T14:15:32.034Z,0.43
2022-11-15T14:18:09.200Z,0.35
2022-11-15T14:20:39.885Z,0.50
2022-11-15T14:23:28.957Z,0.40
2022-11-15T14:25:59.665Z,0.50
2022-11-15T14:28:42.369Z,0.40
2022-11-15T14:31:15.029Z,0.50
2022-11-15T14:33:43.933Z,0.40
2022-11-15T14:36:19.179Z,0.40
2022-11-15T14:38:51.633Z,0.50
2022-11-15T14:41:23.731Z,0.40
2022-11-15T14:43:53.311Z,0.40
2022-11-15T14:46:22.903Z,0.50
2022-11-15T14:49:03.542Z,0.40
2022-11-15T14:51:40.690Z,0.40
2022-11-15T14:54:17.405Z,0.40
2022-11-15T14:56:56.564Z,0.40
2022-11-15T14:59:30.518Z,0.40
2022-11-15T15:02:07.883Z,0.40
2022-11-15T15:04:39.109Z,0.30
2022-11-15T15:07:12.304Z,0.40
2022-11-15T15:10:32.642Z,0.40
2022-11-15T15:12:54.497Z,0.50
2022-11-15T15:15:34.859Z,0.40
2022-11-15T15:45:47.609Z,0.20
2022-11-15T15:48:21.458Z,0.20
2022-11-15T15:50:53.385Z,0.30
2022-11-15T15:53:25.242Z,0.25
2022-11-15T15:55:57.388Z,0.20
2022-11-15T15:58:29.793Z,0.30
2022-11-15T16:01:03.008Z,0.20
2022-11-15T16:03:34.176Z,0.35
2022-11-15T16:06:08.799Z,0.20
2022-11-15T16:09:13.392Z,0.20
2022-11-15T16:11:39.296Z,0.10
2022-11-15T16:14:11.744Z,0.20
2022-11-15T16:16:46.017Z,0.20
2022-11-15T16:19:17.692Z,0.20
2022-11-15T16:21:49.140Z,0.20
2022-11-15T16:24:20.997Z,0.20
2022-11-15T16:26:51.531Z,0.10
2022-11-15T16:29:27.066Z,0.10
2022-11-15T16:32:01.355Z,0.10
2022-11-15T16:37:13.625Z,0.20
2022-11-15T16:39:45.788Z,0.20
2022-11-15T16:44:46.441Z,0.10
2022-11-15T17:00:07.053Z,0.20
2022-11-15T17:02:40.486Z,0.20
2022-11-15T17:18:00.105Z,0.22
2022-11-15T17:20:35.130Z,0.28
2022-11-15T17:23:09.813Z,0.20
2022-11-15T17:25:41.105Z,0.20
2022-11-15T17:28:11.649Z,0.20
2022-11-15T17:30:46.171Z,0.30
2022-11-15T17:33:21.502Z,0.20
2022-11-15T17:36:00.292Z,0.20
2022-11-15T17:38:35.836Z,0.20
2022-11-15T17:41:06.679Z,0.20
2022-11-15T17:43:36.454Z,0.13
2022-11-15T17:48:48.423Z,0.20
2022-11-15T17:51:26.792Z,0.20
2022-11-15T17:53:58.349Z,0.10
2022-11-15T17:56:34.942Z,0.20
2022-11-15T17:59:03.178Z,0.20
2022-11-15T18:01:38.741Z,0.20
2022-11-15T18:04:12.961Z,0.20
2022-11-15T18:09:11.041Z,0.10
2022-11-15T18:11:44.378Z,0.20
2022-11-15T18:14:19.720Z,0.20
2022-11-15T18:16:51.362Z,0.20
2022-11-15T18:19:21.746Z,0.20
2022-11-15T18:22:02.831Z,0.20
2022-11-15T18:26:58.940Z,0.10
2022-11-15T18:29:31.589Z,0.20
2022-11-15T18:34:27.433Z,0.20
2022-11-15T18:37:00.882Z,0.20
2022-11-15T18:39:32.075Z,0.10
2022-11-15T18:42:00.504Z,0.20
2022-11-15T18:44:29.892Z,0.20
2022-11-15T18:47:02.489Z,0.20
2022-11-15T19:46:32.612Z,0.22
2022-11-15T19:49:06.458Z,0.35
2022-11-15T19:51:40.100Z,0.47
2022-11-15T19:54:14.844Z,0.38
2022-11-15T19:56:46.346Z,0.50
2022-11-15T19:59:14.461Z,0.60
2022-11-15T20:01:43.613Z,0.52
2022-11-15T20:04:11.321Z,0.80
2022-11-15T20:06:41.429Z,0.80
2022-11-15T20:09:09.526Z,0.80
2022-11-15T20:11:39.234Z,0.80
2022-11-15T20:16:36.613Z,1.10
2022-11-15T20:19:07.243Z,1.20
2022-11-15T20:21:35.011Z,1.65
2022-11-15T20:24:03.094Z,1.48
2022-11-15T20:26:32.137Z,1.30
2022-11-15T20:29:02.070Z,1.45
2022-11-15T20:31:30.527Z,1.30
2022-11-15T20:33:58.499Z,1.30
2022-11-15T20:36:28.814Z,1.38
2022-11-15T20:38:58.913Z,1.52
2022-11-15T20:41:27.166Z,1.38
2022-11-15T20:43:55.065Z,1.55
2022-11-15T20:46:22.868Z,1.38
2022-11-15T20:48:50.636Z,1.40
2022-11-15T20:51:19.688Z,1.45
2022-11-15T20:53:49.938Z,1.27
2022-11-15T20:56:21.309Z,1.55
2022-11-15T20:58:50.837Z,1.30
2022-11-15T21:01:23.227Z,1.80
2022-11-15T21:03:51.824Z,1.42
2022-11-15T21:06:20.918Z,1.30
2022-11-15T21:09:07.713Z,1.55
2022-11-15T21:11:53.177Z,1.40
2022-11-15T21:14:21.180Z,1.40
2022-11-15T21:16:49.032Z,1.30
2022-11-15T21:19:16.768Z,1.38
2022-11-15T21:21:44.484Z,1.42
2022-11-15T21:24:13.715Z,1.42
2022-11-15T21:26:41.524Z,1.70
2022-11-15T21:29:09.506Z,1.33
2022-11-15T21:31:37.477Z,1.30
2022-11-15T21:34:07.218Z,1.60
2022-11-15T21:36:34.927Z,1.80
2022-11-15T21:39:02.694Z,1.40
2022-11-15T21:41:32.465Z,1.30
2022-11-15T21:44:00.936Z,1.65
2022-11-15T21:46:29.251Z,1.30
2022-11-15T21:48:57.402Z,1.60
2022-11-15T21:51:26.220Z,1.33
2022-11-15T21:53:56.691Z,1.15
2022-11-15T21:56:25.638Z,1.63
2022-11-15T21:58:55.251Z,1.42
2022-11-15T22:04:09.764Z,1.30
2022-11-15T22:06:37.981Z,1.50
2022-11-15T22:09:06.870Z,1.45
2022-11-15T22:11:35.073Z,1.90
2022-11-15T22:14:04.599Z,1.60
2022-11-15T22:16:32.782Z,1.95
2022-11-15T22:19:00.991Z,1.65
2022-11-15T22:21:29.000Z,1.50
2022-11-15T22:23:57.036Z,2.00
2022-11-15T22:26:24.914Z,1.65
2022-11-15T22:28:53.229Z,1.55
2022-11-15T22:31:22.444Z,1.85
2022-11-15T22:33:50.350Z,1.67
2022-11-15T22:36:18.327Z,1.80
2022-11-15T22:38:46.240Z,1.88
2022-11-15T22:41:14.136Z,1.77
2022-11-15T22:43:42.024Z,1.80
2022-11-15T22:46:11.590Z,1.67
2022-11-15T22:48:40.896Z,1.60
2022-11-15T22:51:08.810Z,1.88
2022-11-15T22:53:36.767Z,1.90
2022-11-15T22:56:06.473Z,1.95
2022-11-15T23:01:04.726Z,1.52
2022-11-15T23:06:07.264Z,1.60
2022-11-15T23:08:36.329Z,1.20
2022-11-15T23:11:23.503Z,1.90
2022-11-15T23:13:52.087Z,2.05
2022-11-15T23:16:23.840Z,2.00
2022-11-15T23:18:53.532Z,2.00
2022-11-15T23:21:42.135Z,1.75
2022-11-15T23:24:11.327Z,1.52
2022-11-15T23:26:39.959Z,1.52
2022-11-15T23:29:09.979Z,1.30
2022-11-15T23:32:01.630Z,1.83
2022-11-15T23:34:30.987Z,1.60
2022-11-15T23:37:00.837Z,1.30
2022-11-15T23:39:28.719Z,1.70
2022-11-15T23:41:56.825Z,1.60
2022-11-15T23:44:25.466Z,1.67
2022-11-15T23:46:53.812Z,1.73
2022-11-15T23:49:22.072Z,1.70
2022-11-15T23:51:50.020Z,1.60
2022-11-15T23:54:19.356Z,1.60
2022-11-15T23:56:47.205Z,1.75
2022-11-15T23:59:15.147Z,1.40
